SBOSBO LYS / LFLL
Speedbird OnlineSpeedbird Online LYS / LFLL

Lyon Saint-Exupéry Airport
23:51 -0.5°C

Location Lyon, France
Latitude: 45.725556
Longitude: 5.081111
Web Airport Website | Wikipedia
Altitude 250 Meter / 821 Feet
Distance 739 KM / 459 Miles
from London.
Time Zone UTC +1 hours (Europe/Paris)
Codes IATA: LYS
ICAO: LFLL
Currency £1 equals EUR 1.13
Runways
RunwayLength (m)Surface
17L2670Asphalt
17R4000Asphalt
35L4000Asphalt
35R2670Asphalt
Radio
TypeDescriptionFrequency
A/DLyon approach136.075
ATISATIS126.175
GNDGND121.825
PFLTPREFLIGHT121.65
TWRTWR120.45
Live ATC
METAR LFLL 081430Z VRB03KT CAVOK 08/M02 Q1030 NOSIG
TAF TAF LFLL 081100Z 0812/0918 VRB02KT CAVOK BECMG 0901/0904 BKN050 BECMG 0913/0915 36004KT
Weather As Of 08 Feb 2023 23:51
Description Clear sky
Wind 17 km/h from South-East (140°)
Cloud Cover 0%
Precipitation Rain: none, Snow: none
Sunrise 07:53
Sunset 17:54
Lounges Mont Blanc Lounge, Terminal 1
Rotations During the last 90 days there were
234 flights from LHR
42 flights from LGW
234 flights to LHR
39 flights to LGW



Support Speedbird Online

© 2017-2023 Speedbird Online